createdAt,value
2022-08-19T00:01:59.639Z,99916.03
2022-08-19T00:04:32.435Z,99911.00
2022-08-19T00:07:00.627Z,99909.53
2022-08-19T00:09:29.047Z,99910.75
2022-08-19T00:11:57.775Z,99922.31
2022-08-19T00:14:27.100Z,99930.28
2022-08-19T00:16:55.737Z,99938.44
2022-08-19T00:19:24.279Z,99934.63
2022-08-19T00:21:52.344Z,99930.16
2022-08-19T00:24:20.346Z,99920.94
2022-08-19T00:26:48.209Z,99919.94
2022-08-19T00:29:18.760Z,99927.09
2022-08-19T00:31:46.976Z,99935.69
2022-08-19T00:34:16.092Z,99944.28
2022-08-19T00:36:44.142Z,99935.06
2022-08-19T00:39:12.616Z,99930.22
2022-08-19T00:41:41.262Z,99923.53
2022-08-19T00:44:15.155Z,99922.06
2022-08-19T00:46:55.606Z,99928.84
2022-08-19T00:49:33.836Z,99937.06
2022-08-19T00:52:15.043Z,99938.75
2022-08-19T00:54:44.480Z,99934.16
2022-08-19T00:57:15.952Z,99934.31
2022-08-19T01:00:00.752Z,99928.00
2022-08-19T01:02:32.290Z,99925.50
2022-08-19T01:05:02.293Z,99932.00
2022-08-19T01:07:35.844Z,99921.47
2022-08-19T01:10:13.044Z,99936.16
2022-08-19T01:12:41.017Z,99927.34
2022-08-19T01:15:10.565Z,99921.03
2022-08-19T01:17:40.178Z,99922.69
2022-08-19T01:20:10.615Z,99925.00
2022-08-19T01:22:46.631Z,99931.97
2022-08-19T01:25:16.831Z,99921.03
2022-08-19T01:27:48.796Z,99920.25
2022-08-19T01:30:27.301Z,99929.91
2022-08-19T01:32:55.379Z,99922.63
2022-08-19T01:35:25.108Z,99918.13
2022-08-19T01:37:56.092Z,99919.88
2022-08-19T01:40:27.160Z,99913.56
2022-08-19T01:42:55.430Z,99916.84
2022-08-19T01:45:25.198Z,99926.19
2022-08-19T01:48:02.378Z,99923.22
2022-08-19T01:50:34.592Z,99916.69
2022-08-19T01:53:06.730Z,99916.69
2022-08-19T01:55:41.020Z,99915.84
2022-08-19T01:58:16.823Z,99911.72
2022-08-19T02:00:44.999Z,99922.63
2022-08-19T02:03:12.896Z,99932.09
2022-08-19T02:05:41.889Z,99930.63
2022-08-19T02:08:10.674Z,99921.38
2022-08-19T02:10:44.072Z,99923.44
2022-08-19T02:13:13.239Z,99926.19
2022-08-19T02:15:42.413Z,99929.97
2022-08-19T02:18:11.811Z,99929.97
2022-08-19T02:20:40.592Z,99922.16
2022-08-19T02:23:13.921Z,99923.16
2022-08-19T02:25:46.023Z,99926.94
2022-08-19T02:28:18.330Z,99927.63
2022-08-19T02:30:47.940Z,99930.16
2022-08-19T02:33:16.207Z,99926.34
2022-08-19T02:35:45.480Z,99916.69
2022-08-19T02:38:28.630Z,99927.63
2022-08-19T02:41:04.155Z,99927.84
2022-08-19T02:43:36.949Z,99928.00
2022-08-19T02:46:21.834Z,99922.53
2022-08-19T02:48:50.631Z,99930.19
2022-08-19T02:51:39.732Z,99935.69
2022-08-19T02:54:08.720Z,99941.41
2022-08-19T02:56:37.116Z,99944.38
2022-08-19T02:59:09.264Z,99935.78
2022-08-19T03:01:40.857Z,99943.91
2022-08-19T03:04:10.022Z,99945.84
2022-08-19T03:06:40.299Z,99939.81
2022-08-19T03:09:10.137Z,99940.31
2022-08-19T03:11:38.638Z,99945.19
2022-08-19T03:14:07.441Z,99954.19
2022-08-19T03:16:41.036Z,99950.03
2022-08-19T03:19:08.874Z,99945.00
2022-08-19T03:21:37.148Z,99941.13
2022-08-19T03:24:07.683Z,99929.31
2022-08-19T03:26:39.398Z,99945.28
2022-08-19T03:29:07.485Z,99945.59
2022-08-19T03:31:44.530Z,99944.63
2022-08-19T03:34:22.393Z,99950.31
2022-08-19T03:36:50.033Z,99945.91
2022-08-19T03:39:19.201Z,99946.53
2022-08-19T03:41:48.800Z,99947.97
2022-08-19T03:44:21.774Z,99953.16
2022-08-19T03:46:52.103Z,99953.44
2022-08-19T03:49:21.020Z,99960.13
2022-08-19T03:51:51.246Z,99963.03
2022-08-19T03:54:24.048Z,99967.19
2022-08-19T03:56:57.547Z,99962.59
2022-08-19T03:59:29.627Z,99970.13
2022-08-19T04:01:58.299Z,99958.56
2022-08-19T04:04:29.098Z,99956.97
2022-08-19T04:06:57.877Z,99953.53
2022-08-19T04:09:26.522Z,99950.47
2022-08-19T04:11:57.001Z,99952.91
2022-08-19T04:14:30.041Z,99948.25
2022-08-19T04:16:58.340Z,99953.44
2022-08-19T04:19:26.722Z,99951.53
2022-08-19T04:21:55.507Z,99944.97
2022-08-19T04:24:23.803Z,99942.66
2022-08-19T04:26:52.046Z,99943.59
2022-08-19T04:29:26.497Z,99948.06
2022-08-19T04:31:56.745Z,99947.25
2022-08-19T04:34:27.519Z,99950.97
2022-08-19T04:36:57.431Z,99946.22
2022-08-19T04:39:51.773Z,99947.66
2022-08-19T04:42:41.597Z,99951.63
2022-08-19T04:45:12.476Z,99947.94
2022-08-19T04:47:47.510Z,99952.72
2022-08-19T04:50:27.978Z,99952.16
2022-08-19T04:52:56.723Z,99955.56
2022-08-19T04:55:26.840Z,99964.22
2022-08-19T04:57:57.726Z,99963.09
2022-08-19T05:00:25.581Z,99971.16
2022-08-19T05:02:53.689Z,99970.06
2022-08-19T05:05:22.034Z,99980.06
2022-08-19T05:07:50.108Z,99970.59
2022-08-19T05:10:18.075Z,99971.19
2022-08-19T05:12:47.715Z,99977.03
2022-08-19T05:15:20.031Z,99979.28
2022-08-19T05:18:07.967Z,99987.34
2022-08-19T05:21:02.693Z,99998.16
2022-08-19T05:23:40.923Z,99997.28
2022-08-19T05:26:10.584Z,99999.22
2022-08-19T05:28:38.776Z,99991.31
2022-08-19T05:31:06.755Z,99987.13
2022-08-19T05:33:34.431Z,99991.88
2022-08-19T05:36:03.821Z,100000.22
2022-08-19T05:38:34.429Z,100007.44
2022-08-19T05:41:09.047Z,99998.25
2022-08-19T05:43:37.068Z,100000.47
2022-08-19T05:46:09.769Z,100005.84
2022-08-19T05:48:37.585Z,100003.63
2022-08-19T05:51:09.742Z,99997.09
2022-08-19T05:53:37.584Z,99993.47
2022-08-19T05:56:14.196Z,99994.16
2022-08-19T05:58:43.279Z,99992.88
2022-08-19T06:01:15.487Z,99990.50
2022-08-19T06:03:44.586Z,99990.22
2022-08-19T06:06:15.553Z,99992.84
2022-08-19T06:08:52.013Z,99999.97
2022-08-19T06:11:29.073Z,99999.25
2022-08-19T06:14:00.127Z,99986.72
2022-08-19T06:16:29.299Z,99985.38
2022-08-19T06:18:58.391Z,99998.09
2022-08-19T06:21:30.797Z,99991.56
2022-08-19T06:24:02.062Z,99992.97
2022-08-19T06:26:29.833Z,100000.59
2022-08-19T06:28:59.000Z,100000.59
2022-08-19T06:31:28.911Z,100003.81
2022-08-19T06:33:57.378Z,100008.25
2022-08-19T06:36:35.710Z,100014.13
2022-08-19T06:39:09.743Z,100013.00
2022-08-19T06:41:49.367Z,100013.81
2022-08-19T06:44:21.579Z,100016.75
2022-08-19T06:46:54.766Z,100022.56
2022-08-19T06:49:32.522Z,100021.50
2022-08-19T06:52:00.894Z,100021.50
2022-08-19T06:54:31.061Z,100028.00
2022-08-19T06:57:03.470Z,100023.97
2022-08-19T06:59:34.283Z,100016.06
2022-08-19T07:02:06.642Z,100028.56
2022-08-19T07:04:42.512Z,100018.94
2022-08-19T07:07:21.184Z,100025.03
2022-08-19T07:09:51.776Z,100016.78
2022-08-19T07:12:38.024Z,100030.13
2022-08-19T07:15:13.246Z,100021.72
2022-08-19T07:17:54.419Z,100023.97
2022-08-19T07:20:24.276Z,100019.53
2022-08-19T07:22:56.515Z,100024.19
2022-08-19T07:25:32.271Z,100023.66
2022-08-19T07:28:06.357Z,100018.91
2022-08-19T07:30:38.129Z,100017.41
2022-08-19T07:33:06.579Z,100015.50
2022-08-19T07:35:35.085Z,100017.78
2022-08-19T07:38:04.355Z,100024.44
2022-08-19T07:40:34.807Z,100024.16
2022-08-19T07:43:05.545Z,100027.78
2022-08-19T07:45:33.859Z,100028.72
2022-08-19T07:48:12.258Z,100029.31
2022-08-19T07:50:45.735Z,100031.44
2022-08-19T07:53:25.250Z,100026.72
2022-08-19T07:55:52.986Z,100030.00
2022-08-19T07:58:24.293Z,100028.59
2022-08-19T08:00:52.549Z,100024.75
2022-08-19T08:03:22.798Z,100018.13
2022-08-19T08:06:14.704Z,100018.22
2022-08-19T08:12:30.778Z,100016.09
2022-08-19T08:15:21.245Z,100014.13
2022-08-19T08:17:53.863Z,100011.25
2022-08-19T08:20:21.905Z,100022.13
2022-08-19T08:23:17.714Z,100021.69
2022-08-19T08:25:50.890Z,100027.72
2022-08-19T08:28:23.042Z,100026.06
2022-08-19T08:30:51.521Z,100025.00
2022-08-19T08:33:32.788Z,100021.53
2022-08-19T08:36:06.253Z,100031.44
2022-08-19T08:38:40.523Z,100031.19
2022-08-19T08:41:35.947Z,100025.66
2022-08-19T08:47:01.812Z,100017.13
2022-08-19T08:49:40.167Z,100016.28
2022-08-19T08:52:23.290Z,100019.09
2022-08-19T08:58:35.276Z,100022.34
2022-08-19T09:01:15.793Z,100012.09
2022-08-19T09:03:46.437Z,100006.16
2022-08-19T09:06:35.939Z,100016.56
2022-08-19T09:09:22.778Z,100014.66
2022-08-19T09:12:26.913Z,100016.31
2022-08-19T09:15:17.402Z,100021.88
2022-08-19T09:17:50.423Z,100013.78
2022-08-19T09:20:28.261Z,100013.50
2022-08-19T09:23:00.724Z,100012.63
2022-08-19T09:25:30.741Z,100016.84
2022-08-19T09:28:21.929Z,100008.78
2022-08-19T09:30:59.696Z,100011.84
2022-08-19T09:33:44.801Z,100015.19
2022-08-19T09:36:31.113Z,100019.09
2022-08-19T09:39:16.467Z,100009.31
2022-08-19T09:41:50.018Z,100021.03
2022-08-19T09:44:20.511Z,100012.66
2022-08-19T09:46:52.510Z,100012.34
2022-08-19T09:49:24.323Z,100012.38
2022-08-19T09:51:56.918Z,100019.38
2022-08-19T09:54:37.591Z,100016.06
2022-08-19T09:57:08.880Z,100017.16
2022-08-19T09:59:43.412Z,100021.06
2022-08-19T10:02:22.138Z,100031.94
2022-08-19T10:05:10.041Z,100023.31
2022-08-19T10:07:39.467Z,100023.84
2022-08-19T10:10:18.674Z,100019.69
2022-08-19T10:12:48.829Z,100020.50
2022-08-19T10:15:18.893Z,100020.25
2022-08-19T10:18:04.505Z,100026.09
2022-08-19T10:20:43.440Z,100018.81
2022-08-19T10:23:18.557Z,100021.03
2022-08-19T10:25:50.964Z,100021.59
2022-08-19T10:28:20.785Z,100017.72
2022-08-19T10:30:52.416Z,100009.06
2022-08-19T10:33:38.427Z,100006.78
2022-08-19T10:36:23.779Z,100013.19
2022-08-19T10:39:02.166Z,100009.56
2022-08-19T10:41:50.829Z,100015.13
2022-08-19T10:44:32.359Z,100004.38
2022-08-19T10:47:02.551Z,100015.25
2022-08-19T10:49:35.986Z,100006.38
2022-08-19T10:52:32.241Z,100000.19
2022-08-19T10:55:29.825Z,99997.22
2022-08-19T10:58:38.089Z,99990.53
2022-08-19T11:01:13.169Z,99997.22
2022-08-19T11:03:46.805Z,99989.31
2022-08-19T11:06:25.173Z,99991.53
2022-08-19T11:08:59.356Z,100000.22
2022-08-19T11:11:55.444Z,99989.63
2022-08-19T11:14:34.468Z,99982.19
2022-08-19T11:17:06.771Z,99985.22
2022-08-19T11:19:54.321Z,99988.84
2022-08-19T11:22:45.740Z,99993.97
2022-08-19T11:25:43.001Z,99986.72
2022-08-19T11:28:58.382Z,99986.69
2022-08-19T11:32:28.061Z,99991.44
2022-08-19T11:36:19.628Z,99989.81
2022-08-19T11:43:22.835Z,99990.13
2022-08-19T11:49:24.891Z,99980.91
2022-08-19T12:34:34.339Z,99995.69
2022-08-19T12:37:24.786Z,100001.28
2022-08-19T12:40:18.957Z,99997.63
2022-08-19T12:47:29.055Z,100010.19
2022-08-19T12:50:15.539Z,100014.06
2022-08-19T12:53:31.922Z,100001.72
2022-08-19T12:59:27.817Z,100014.78
2022-08-19T13:02:28.924Z,100021.78
2022-08-19T13:05:30.472Z,100011.78
2022-08-19T13:08:28.618Z,100021.63
2022-08-19T13:15:15.349Z,100026.72
2022-08-19T13:18:13.761Z,100035.78
2022-08-19T13:24:43.925Z,100058.38
2022-08-19T13:27:49.894Z,100067.72
2022-08-19T13:33:55.400Z,100111.66
2022-08-19T13:36:36.975Z,100094.78
2022-08-19T13:39:53.662Z,100114.34
2022-08-19T13:43:23.004Z,100147.47
2022-08-19T13:46:10.345Z,100169.13
2022-08-19T13:48:56.552Z,100163.16
2022-08-19T13:51:46.872Z,100171.59
2022-08-19T13:54:13.664Z,100186.81
2022-08-19T13:56:48.407Z,100193.41
2022-08-19T13:59:28.718Z,100199.41
2022-08-19T14:02:01.433Z,100193.97
2022-08-19T14:04:38.827Z,100183.41
2022-08-19T14:07:19.110Z,100191.97
2022-08-19T14:09:53.235Z,100182.34
2022-08-19T14:12:46.915Z,100167.22
2022-08-19T14:15:27.584Z,100140.66
2022-08-19T14:18:51.485Z,100112.44
2022-08-19T14:21:42.026Z,100096.75
2022-08-19T14:24:48.049Z,100094.25
2022-08-19T14:28:40.083Z,100087.56
2022-08-19T14:31:06.926Z,100109.13
2022-08-19T14:38:01.667Z,100091.91
2022-08-19T14:40:55.990Z,100083.41
2022-08-19T14:44:02.162Z,100077.03
2022-08-19T14:49:55.214Z,100077.47
2022-08-19T14:52:34.607Z,100079.78
2022-08-19T14:55:38.943Z,100092.63
2022-08-19T14:58:40.655Z,100096.34
2022-08-19T15:04:36.066Z,100108.34
2022-08-19T15:07:32.386Z,100106.66
2022-08-19T15:10:23.750Z,100096.25
2022-08-19T15:12:56.015Z,100090.75
2022-08-19T15:15:27.961Z,100084.72
2022-08-19T15:18:03.429Z,100083.69
2022-08-19T15:20:36.288Z,100065.94
2022-08-19T15:23:09.013Z,100067.47
2022-08-19T15:25:42.653Z,100057.56
2022-08-19T15:28:26.434Z,100063.34
2022-08-19T15:30:57.017Z,100067.22
2022-08-19T15:33:35.617Z,100070.63
2022-08-19T15:36:18.409Z,100069.56
2022-08-19T15:38:56.114Z,100072.00
2022-08-19T15:41:41.788Z,100074.03
2022-08-19T15:44:33.023Z,100087.00
2022-08-19T15:47:26.027Z,100103.94
2022-08-19T15:50:15.600Z,100116.00
2022-08-19T15:53:07.363Z,100126.09
2022-08-19T15:55:55.126Z,100140.16
2022-08-19T15:59:13.360Z,100147.81
2022-08-19T16:02:06.965Z,100155.28
2022-08-19T16:05:18.507Z,100171.41
2022-08-19T16:10:51.739Z,100209.69
2022-08-19T16:13:27.105Z,100202.09
2022-08-19T16:15:58.356Z,100201.25
2022-08-19T16:18:27.326Z,100203.16
2022-08-19T16:21:00.806Z,100201.69
2022-08-19T16:23:31.293Z,100208.00
2022-08-19T16:26:03.398Z,100210.16
2022-08-19T16:28:31.990Z,100209.53
2022-08-19T16:31:06.754Z,100199.56
2022-08-19T16:33:41.510Z,100188.78
2022-08-19T16:36:11.398Z,100190.47
2022-08-19T16:38:48.605Z,100194.28
2022-08-19T16:41:17.762Z,100198.28
2022-08-19T16:43:54.664Z,100203.16
2022-08-19T16:46:30.652Z,100188.38
2022-08-19T16:49:01.913Z,100190.69
2022-08-19T16:51:30.302Z,100179.31
2022-08-19T16:54:01.992Z,100179.50
2022-08-19T16:56:30.927Z,100178.22
2022-08-19T16:59:02.782Z,100178.44
2022-08-19T17:01:38.989Z,100164.94
2022-08-19T17:04:35.691Z,100156.47
2022-08-19T17:07:12.395Z,100153.72
2022-08-19T17:09:42.462Z,100153.31
2022-08-19T17:12:17.368Z,100146.78
2022-08-19T17:15:16.384Z,100150.56
2022-08-19T17:18:15.026Z,100151.41
2022-08-19T17:20:58.771Z,100154.75
2022-08-19T17:23:43.601Z,100155.13
2022-08-19T17:26:20.762Z,100156.41
2022-08-19T17:28:57.977Z,100156.19
2022-08-19T17:31:36.085Z,100162.97
2022-08-19T17:34:18.085Z,100178.72
2022-08-19T17:36:46.642Z,100174.94
2022-08-19T17:39:14.481Z,100171.56
2022-08-19T17:41:54.280Z,100180.41
2022-08-19T17:44:24.406Z,100174.09
2022-08-19T17:46:59.348Z,100184.84
2022-08-19T17:52:31.190Z,100188.06
2022-08-19T17:58:13.746Z,100194.78
2022-08-19T18:00:54.073Z,100189.50
2022-08-19T18:03:30.605Z,100196.22
2022-08-19T18:06:08.933Z,100197.72
2022-08-19T18:08:40.847Z,100202.84
2022-08-19T18:11:19.836Z,100209.13
2022-08-19T18:13:58.802Z,100206.13
2022-08-19T18:16:33.532Z,100218.16
2022-08-19T18:19:04.881Z,100210.16
2022-08-19T18:24:27.384Z,100195.59
2022-08-19T18:26:58.781Z,100189.72
2022-08-19T18:29:34.543Z,100181.06
2022-08-19T18:32:07.131Z,100183.38
2022-08-19T18:34:36.832Z,100184.69
2022-08-19T18:37:10.331Z,100185.72
2022-08-19T18:40:08.157Z,100177.72
2022-08-19T18:43:03.412Z,100172.41
2022-08-19T18:45:50.280Z,100177.41
2022-08-19T18:48:41.605Z,100175.91
2022-08-19T18:51:13.746Z,100184.19
2022-08-19T18:53:59.428Z,100189.44
2022-08-19T18:56:32.964Z,100197.91
2022-08-19T18:59:22.222Z,100202.09
2022-08-19T19:02:02.454Z,100201.38
2022-08-19T19:04:42.370Z,100210.66
2022-08-19T19:07:18.584Z,100209.22
2022-08-19T19:09:53.752Z,100226.91
2022-08-19T19:15:43.559Z,100227.81
2022-08-19T19:18:32.747Z,100238.97
2022-08-19T19:21:05.423Z,100236.47
2022-08-19T19:23:43.926Z,100240.91
2022-08-19T19:29:19.332Z,100240.31
2022-08-19T19:31:52.628Z,100229.16
2022-08-19T19:34:29.804Z,100223.94
2022-08-19T19:37:02.943Z,100231.38
2022-08-19T19:39:45.191Z,100232.28
2022-08-19T19:42:26.975Z,100231.88
2022-08-19T19:44:57.039Z,100237.16
2022-08-19T19:47:29.333Z,100224.88
2022-08-19T19:50:16.045Z,100237.97
2022-08-19T19:52:47.024Z,100239.09
2022-08-19T19:55:20.850Z,100235.91
2022-08-19T19:58:02.255Z,100244.22
2022-08-19T20:00:43.781Z,100246.75
2022-08-19T20:03:11.949Z,100253.28
2022-08-19T20:05:44.349Z,100265.69
2022-08-19T20:08:31.491Z,100246.28
2022-08-19T20:11:04.708Z,100237.81
2022-08-19T20:13:33.715Z,100246.84
2022-08-19T20:16:04.384Z,100248.50
2022-08-19T20:18:37.064Z,100253.97
2022-08-19T20:21:06.874Z,100269.38
2022-08-19T20:23:36.685Z,100260.09
2022-08-19T20:26:06.756Z,100254.78
2022-08-19T20:28:40.700Z,100250.94
2022-08-19T20:31:19.088Z,100265.06
2022-08-19T20:33:48.103Z,100271.78
2022-08-19T20:36:17.248Z,100270.09
2022-08-19T20:38:44.990Z,100268.75
2022-08-19T20:41:15.357Z,100267.28
2022-08-19T20:43:44.256Z,100266.59
2022-08-19T20:46:11.911Z,100274.81
2022-08-19T20:48:42.563Z,100263.75
2022-08-19T20:51:12.185Z,100261.06
2022-08-19T20:53:42.297Z,100252.59
2022-08-19T20:56:09.934Z,100245.38
2022-08-19T20:58:46.836Z,100239.84
2022-08-19T21:01:16.648Z,100250.78
2022-08-19T21:03:44.811Z,100246.75
2022-08-19T21:06:14.392Z,100243.38
2022-08-19T21:08:44.325Z,100230.09
2022-08-19T21:11:14.270Z,100233.50
2022-08-19T21:13:48.789Z,100239.16
2022-08-19T21:16:17.867Z,100239.97
2022-08-19T21:18:45.808Z,100230.00
2022-08-19T21:21:14.051Z,100234.38
2022-08-19T21:23:42.262Z,100228.66
2022-08-19T21:26:10.050Z,100222.31
2022-08-19T21:28:37.853Z,100223.34
2022-08-19T21:31:14.110Z,100231.06
2022-08-19T21:33:44.956Z,100237.41
2022-08-19T21:36:16.683Z,100223.00
2022-08-19T21:38:45.077Z,100221.69
2022-08-19T21:41:13.412Z,100212.00
2022-08-19T21:43:42.099Z,100211.81
2022-08-19T21:46:11.240Z,100212.47
2022-08-19T21:48:39.568Z,100208.44
2022-08-19T21:51:09.336Z,100201.31
2022-08-19T21:53:37.937Z,100207.06
2022-08-19T21:56:12.749Z,100206.22
2022-08-19T21:58:41.542Z,100195.72
2022-08-19T22:01:09.642Z,100199.06
2022-08-19T22:03:38.322Z,100201.72
2022-08-19T22:06:06.776Z,100201.25
2022-08-19T22:08:35.670Z,100207.56
2022-08-19T22:11:13.030Z,100206.56
2022-08-19T22:13:42.459Z,100206.72
2022-08-19T22:16:10.650Z,100216.44
2022-08-19T22:18:38.643Z,100218.34
2022-08-19T22:21:11.245Z,100218.97
2022-08-19T22:23:41.981Z,100215.97
2022-08-19T22:26:09.924Z,100205.13
2022-08-19T22:28:39.705Z,100208.94
2022-08-19T22:31:09.678Z,100218.84
2022-08-19T22:33:38.478Z,100201.84
2022-08-19T22:36:09.914Z,100202.81
2022-08-19T22:38:38.552Z,100204.69
2022-08-19T22:41:08.049Z,100212.91
2022-08-19T22:43:37.605Z,100198.78
2022-08-19T22:46:16.939Z,100197.75
2022-08-19T22:48:46.969Z,100198.13
2022-08-19T22:51:33.711Z,100193.00
2022-08-19T22:54:02.808Z,100191.94
2022-08-19T22:56:30.985Z,100187.44
2022-08-19T22:58:58.954Z,100185.09
2022-08-19T23:01:30.597Z,100193.50
2022-08-19T23:03:59.811Z,100191.44
2022-08-19T23:06:33.862Z,100202.09
2022-08-19T23:09:05.382Z,100195.66
2022-08-19T23:11:41.443Z,100210.00
2022-08-19T23:14:14.244Z,100209.44
2022-08-19T23:16:42.497Z,100213.13
2022-08-19T23:19:10.735Z,100220.72
2022-08-19T23:21:42.647Z,100216.91
2022-08-19T23:24:10.745Z,100212.06
2022-08-19T23:26:38.853Z,100210.03
2022-08-19T23:29:25.174Z,100211.94
2022-08-19T23:31:52.947Z,100209.88
2022-08-19T23:34:22.449Z,100219.53
2022-08-19T23:36:51.084Z,100219.53
2022-08-19T23:39:19.483Z,100230.88
2022-08-19T23:41:48.905Z,100225.69
2022-08-19T23:44:18.326Z,100216.56
2022-08-19T23:46:54.683Z,100217.53
2022-08-19T23:49:25.190Z,100223.34
2022-08-19T23:51:55.777Z,100215.59
2022-08-19T23:54:34.271Z,100225.50
2022-08-19T23:57:13.949Z,100229.91
2022-08-19T23:59:43.201Z,100223.81
